Relevés horaires Beauvechain (Belgique)


Relevés horaires à Beauvechain - Jeudi 16 Mars 2017
Heure UTC1 Température [°C] Vent [km/h] Hum. [%] Pres.4 [hPa] Visi. [Km] Nébu. [octa] Préc.5 [mm] Cond.
2m. Res. Ros. Dir.2 Vit. Moy. Raf.3
23:00 10.8 10.5 5.4 OSO 5.6 -- 7.4 69 1017.7(-0.9/3h) 11 -- -- --
22:00 11.1 10.8 5.5 SO 5.6 -- 5.6 68 1018.1(-1.0/3h) 12 -- -- --
21:00 11.7 11.7 5.7 SO 3.7 -- 7.4 67 1018.3(-0.7/3h) 13 -- -- --
20:00 12.5 12.4 6.2 SSO 5.6 -- 7.4 65 1018.7(-0.6/3h) 13 -- -- --
19:00 13.8 13.8 6.7 NNO 3.7 -- 3.7 62 1018.8(-1.2/3h) 12 -- -- --
18:00 15.1 15.1 6.4 NNO 1.9 -- 9.3 56 1019(-2.2/3h) 14 -- -- --
17:00 16.8 16.8 6.2 NNO 1.9 -- 9.3 50 1019.1(-3.0/3h) 18 1/8 -- --
16:00 17.1 17.1 5.6 S 5.6 -- 9.3 47 1020(-3.1/3h) 18 1/8 -- --
15:00 17.3 17.3 6.0 S 5.6 -- 9.3 47 1021.1(-3.0/3h) 18 1/8 -- --
14:00 16.6 16.6 6.1 SSO 5.6 -- 9.3 50 1022.2(-2.9/3h) 18 1/8 -- --
13:00 16.0 16.0 5.6 S 3.7 -- 9.3 50 1023.2(-2.5/3h) 18 1/8 -- --
12:00 15.8 15.8 5.0 S 3.7 -- 7.4 49 1024.4(-2.0/3h) 18 1/8 -- --
11:00 14.7 14.7 5.8 SSO 3.7 -- 7.4 55 1025.2(-1.4/3h) 13 1/8 -- --
10:00 13.6 13.6 6.8 SO 3.7 -- 5.6 63 1026(-1.0/3h) 13 1/8 -- --
09:00 11.8 11.8 6.9 NNO 1.9 -- 3.7 72 1026.7(-0.5/3h) 12 1/8 -- --
08:00 9.6 9.6 5.6 NNO 1.9 -- 1.9 76 1027(-0.5/3h) 10 1/8 -- --
07:00 7.0 7.0 4.8 NNO 1.9 -- 3.7 86 1027.4(-0.7/3h) 10 1/8 -- --
06:00 6.3 6.3 4.2 NNO 3.7 -- 3.7 86 1027.5(-0.9/3h) 10 0/8 -- --
05:00 7.4 7.4 4.1 NNO 1.9 -- 3.7 80 1027.7(-1.1/3h) 12 0/8 -- --
04:00 7.0 7.0 4.0 NNO 1.9 -- 1.9 81 1028(-1.6/3h) 13 -- -- --
03:00 6.5 6.5 3.9 NNO 1.9 -- 1.9 83 1028.4(-1.6/3h) 13 -- -- --
02:00 7.4 7.4 3.4 NNO 1.9 -- 1.9 76 1028.9(-1.8/3h) 13 -- -- --
01:00 9.0 9.0 3.8 NNO 1.9 -- 0.0 70 1029.5(-1.5/3h) 19 -- -- --
00:00 9.3 9.3 4.1 NNO 0.0 -- 5.6 70 1030(-1.4/3h) 20 -- -- --

1 Coordinated Universal Time. Actuellement il est 18:00 locale et 17:00 UTC.

2 Le vent souffle depuis la direction indiquée vers la direction oposée.

3 Les rafales max. sont disponible 40 min après l'heure du relevé.

4 Pour les stations d'altitude (plus de 600m) le géopotentiel du niveau le plus proche de la pression obligatoire est indiqué.

5 Les stations disposant d'un diffuseur peuvent indiquer "trace". Cela signifie que des précipitations ont touchés le sol mais que la quantité est inférieure à 0.1 mm.

Récapitulatif de la journée
Température [°C] Vent [km/h] Ensoleillement4 [h] Precipitations totale5 [mm] Pression [Hpa]
Min1 Max.2 Moy.3 Max. Min Max.
6.0 17.6 0 9.3 0 h 0 min 0 1017.7 1030.0

1 Température minimale relevée entre 18:00 UTC la veille et 18:00 UTC le jour donné.

2 Température maximale relevée entre 06:00 UTC le jour donné et 06:00 UTC le lendemain.

3 Vent moyen de la journée basé sur les relevés horaires.

4 Ensoleillement en heures relevé entre 06:00 UTC la veille et 06:00 UTC le jour donné.

5 Précipitations totales tombées entre 06:00 UTC la jour donné et 06:00 UTC le lendemain.

Graphiques horaires